Yellow House, Pennsylvania
Current Conditions -  °F | °C
As of 1:54 AM on Friday 28 Nov 2014 (Local Time) from KPTW Reporting Station
Light Snow Light Snow  
Wind Chill: 28°   Ceiling: 6000
Heat Index: 28°   Visibility: 6mi
Dew Point: 26°   Wind: 0mph
Humidity: 92%   Direction: NA
Pressure: 30.12"   Gusts: NA
Location:  40.2688°N, 75.7411°W
Report Text: KPTW 280654Z AUTO 00000KT 6SM -SN BR FEW039 SCT049 OVC060 M02/M03 A3012 RMK AO2 SNB09 SLP200 P0000 T10221033
Loading
Personal Weather Stations






























Interactive Weather Map New forecast layout! Learn more

10-Day Weather Forecast

Advertisements
Track Severe Weather on mobile